Time;durP1;ratioP1;P1;durP2;ratioP2;P2;SDS_P1;SDS_P2;PMS_P1;PMS_P2;Temp;Humidity;BMP_temperature;BMP_pressure;BME280_temperature;BME280_humidity;BME280_pressure;Samples;Min_cycle;Max_cycle;Signal;HPM_P1;HPM_P2
2023/03/20 00:00:44;;;;;;;6.03;5.53;;;11.90;99.90;;;;;;5025654;28;20428;-72
2023/03/20 00:03:10;;;;;;;5.40;4.93;;;11.90;99.90;;;;;;5026563;28;20411;-75
2023/03/20 00:05:36;;;;;;;5.93;5.43;;;11.90;99.90;;;;;;5028355;28;20458;-72
2023/03/20 00:08:02;;;;;;;5.37;4.87;;;11.90;99.90;;;;;;5026195;28;20955;-75
2023/03/20 00:10:37;;;;;;;4.93;4.43;;;11.90;99.90;;;;;;5026666;28;20185;-75
2023/03/20 00:13:04;;;;;;;5.80;5.30;;;12.00;99.90;;;;;;5026532;28;20576;-71
2023/03/20 00:15:34;;;;;;;8.10;5.80;;;12.00;99.90;;;;;;5026526;28;20418;-72
2023/03/20 00:18:00;;;;;;;5.47;4.97;;;12.00;99.90;;;;;;5025996;28;20469;-72
2023/03/20 00:20:26;;;;;;;5.90;5.43;;;12.00;99.90;;;;;;5025081;28;20503;-72
2023/03/20 00:22:52;;;;;;;4.30;3.97;;;11.90;99.90;;;;;;5025561;28;21138;-72
2023/03/20 00:25:23;;;;;;;6.03;4.20;;;11.80;99.90;;;;;;5026158;28;20468;-72
2023/03/20 00:27:49;;;;;;;6.70;5.00;;;11.80;99.90;;;;;;5025593;28;20475;-72
2023/03/20 00:30:23;;;;;;;5.43;4.93;;;11.70;99.90;;;;;;5024246;28;20478;-73
2023/03/20 00:32:49;;;;;;;5.53;5.03;;;11.70;99.90;;;;;;5026307;28;20177;-72
2023/03/20 00:35:22;;;;;;;4.40;3.90;;;11.80;99.90;;;;;;5026159;28;20503;-71
2023/03/20 00:37:47;;;;;;;4.30;3.80;;;11.80;99.90;;;;;;5025892;28;20443;-73
2023/03/20 00:40:13;;;;;;;5.80;5.33;;;11.70;99.90;;;;;;5025906;28;20422;-73
2023/03/20 00:42:40;;;;;;;4.13;3.83;;;11.70;99.90;;;;;;5026018;28;20246;-73
2023/03/20 00:45:09;;;;;;;4.17;3.83;;;11.80;99.90;;;;;;5025960;28;20495;-73
2023/03/20 00:47:37;;;;;;;4.67;3.83;;;11.70;99.90;;;;;;5025574;28;21018;-75
2023/03/20 00:50:14;;;;;;;4.60;4.27;;;11.80;99.90;;;;;;5025498;28;20423;-72
2023/03/20 00:52:39;;;;;;;4.50;3.53;;;11.90;99.90;;;;;;5026156;28;20420;-73
2023/03/20 00:55:05;;;;;;;3.73;3.43;;;11.90;99.90;;;;;;5026036;28;20445;-72
2023/03/20 00:57:45;;;;;;;4.37;3.90;;;11.90;99.90;;;;;;5025293;28;20788;-76
2023/03/20 01:00:20;;;;;;;4.37;2.80;;;11.90;99.90;;;;;;5025830;28;20265;-72
2023/03/20 01:02:46;;;;;;;4.10;3.30;;;11.80;99.90;;;;;;5025541;28;20954;-73
2023/03/20 01:05:12;;;;;;;3.43;3.20;;;11.70;99.90;;;;;;5026068;28;20487;-73
2023/03/20 01:07:39;;;;;;;4.33;4.00;;;11.80;99.90;;;;;;5025668;28;20549;-71
2023/03/20 01:10:05;;;;;;;3.80;3.23;;;11.90;99.90;;;;;;5024377;28;20440;-73
2023/03/20 01:12:31;;;;;;;4.43;3.30;;;11.80;99.90;;;;;;5025905;28;20640;-75
2023/03/20 01:14:58;;;;;;;3.53;3.23;;;11.70;99.90;;;;;;5026140;28;20417;-72
2023/03/20 01:17:25;;;;;;;3.87;3.57;;;11.70;99.90;;;;;;5025809;28;20275;-72
2023/03/20 01:19:52;;;;;;;4.50;3.00;;;11.70;99.90;;;;;;5025733;28;20433;-72
2023/03/20 01:22:17;;;;;;;3.30;3.07;;;11.70;99.90;;;;;;5025631;28;20488;-71
2023/03/20 01:24:43;;;;;;;2.63;2.43;;;11.50;99.90;;;;;;5025175;28;21032;-71
2023/03/20 01:27:18;;;;;;;2.83;2.63;;;11.40;99.90;;;;;;5023870;28;20222;-71
2023/03/20 01:29:45;;;;;;;3.53;3.23;;;11.40;99.90;;;;;;5025749;28;20254;-75
2023/03/20 01:32:16;;;;;;;3.60;3.30;;;11.20;99.90;;;;;;5025744;28;20926;-72
2023/03/20 01:34:42;;;;;;;3.73;3.43;;;11.30;99.90;;;;;;5024223;28;20438;-72
2023/03/20 01:37:15;;;;;;;4.50;3.17;;;11.40;99.90;;;;;;5025058;28;20438;-72
2023/03/20 01:39:41;;;;;;;3.47;3.17;;;11.40;99.90;;;;;;5025423;28;20415;-73
2023/03/20 01:42:06;;;;;;;3.73;3.40;;;11.30;99.90;;;;;;5025038;28;20473;-73
2023/03/20 01:44:35;;;;;;;4.13;3.83;;;11.30;99.90;;;;;;5025905;28;20693;-73
2023/03/20 01:47:02;;;;;;;3.23;3.00;;;11.30;99.90;;;;;;5025705;28;20183;-72
2023/03/20 01:49:28;;;;;;;3.70;3.40;;;11.40;99.90;;;;;;5024477;28;20433;-73
2023/03/20 01:51:55;;;;;;;4.23;3.30;;;11.40;99.90;;;;;;5025263;28;20402;-76
2023/03/20 01:54:22;;;;;;;5.60;3.47;;;11.30;99.90;;;;;;5023377;28;20566;-71
2023/03/20 01:56:53;;;;;;;3.23;2.93;;;11.10;99.90;;;;;;5024594;28;20789;-71
2023/03/20 01:59:33;;;;;;;2.47;2.30;;;11.20;99.90;;;;;;5024799;28;20404;-73
2023/03/20 02:01:59;;;;;;;2.90;2.70;;;11.30;99.90;;;;;;5024237;28;20985;-72
2023/03/20 02:04:33;;;;;;;3.30;3.00;;;11.40;99.90;;;;;;5024524;28;20600;-72
2023/03/20 02:06:59;;;;;;;3.10;2.90;;;11.50;99.90;;;;;;5024869;28;20766;-72
2023/03/20 02:09:25;;;;;;;2.33;2.13;;;11.60;99.90;;;;;;5024079;28;20415;-72
2023/03/20 02:11:52;;;;;;;2.80;2.60;;;11.60;99.90;;;;;;5024985;28;20794;-71
2023/03/20 02:14:19;;;;;;;4.00;2.73;;;11.50;99.90;;;;;;5025213;28;20264;-72
2023/03/20 02:16:46;;;;;;;3.13;2.93;;;11.60;99.90;;;;;;5024568;28;20429;-72
2023/03/20 02:19:34;;;;;;;3.40;3.17;;;11.60;99.90;;;;;;5024036;28;20462;-71
2023/03/20 02:22:42;;;;;;;2.53;2.33;;;11.70;99.90;;;;;;5012370;28;20439;-70
2023/03/20 02:25:32;;;;;;;2.80;2.60;;;11.60;99.90;;;;;;5024529;28;20532;-71
2023/03/20 02:28:06;;;;;;;4.90;3.40;;;11.50;99.90;;;;;;5025506;28;20485;-71
2023/03/20 02:30:31;;;;;;;3.50;3.20;;;11.40;99.90;;;;;;5025897;28;20756;-72
2023/03/20 02:33:28;;;;;;;3.67;3.27;;;11.40;99.90;;;;;;5029101;28;20501;-72
2023/03/20 02:35:57;;;;;;;3.73;3.43;;;11.30;99.90;;;;;;5027688;28;20594;-70
2023/03/20 02:38:46;;;;;;;3.10;2.47;;;11.20;99.90;;;;;;5026325;28;21200;-74
2023/03/20 02:41:21;;;;;;;2.90;2.60;;;11.30;99.90;;;;;;5024929;28;20421;-72
2023/03/20 02:43:53;;;;;;;3.30;2.37;;;11.40;99.90;;;;;;5026327;28;20401;-71
2023/03/20 02:46:21;;;;;;;2.97;2.10;;;11.40;99.90;;;;;;5033325;28;20422;-72
2023/03/20 02:49:35;;;;;;;2.83;1.90;;;11.50;99.90;;;;;;5042901;28;20440;-74
2023/03/20 02:52:15;;;;;;;1.40;1.30;;;11.60;99.90;;;;;;5044697;28;20438;-71
2023/03/20 02:54:55;;;;;;;1.40;1.20;;;11.60;99.90;;;;;;5042959;28;20434;-73
2023/03/20 02:57:59;;;;;;;1.17;1.07;;;11.60;99.90;;;;;;5045206;28;20475;-73
2023/03/20 03:00:34;;;;;;;1.20;1.10;;;11.30;99.90;;;;;;5044269;28;20420;-74
2023/03/20 03:03:14;;;;;;;2.27;1.10;;;11.30;99.90;;;;;;5047156;28;20402;-73
2023/03/20 03:05:49;;;;;;;1.40;1.30;;;11.50;99.90;;;;;;5047458;28;20988;-73
2023/03/20 03:08:19;;;;;;;1.30;0.90;;;11.60;99.90;;;;;;5046221;28;20440;-72
2023/03/20 03:10:51;;;;;;;1.30;1.00;;;11.70;99.90;;;;;;5045674;28;20470;-72
2023/03/20 03:13:24;;;;;;;1.30;1.20;;;11.70;99.90;;;;;;5033683;28;20565;-71
2023/03/20 03:15:53;;;;;;;1.50;1.00;;;11.70;99.90;;;;;;5024014;28;20850;-73
2023/03/20 03:18:23;;;;;;;1.43;1.30;;;11.80;99.90;;;;;;5022791;28;20449;-73
2023/03/20 03:20:54;;;;;;;3.67;0.90;;;11.70;99.90;;;;;;5024161;28;20562;-73
2023/03/20 03:23:29;;;;;;;1.10;1.00;;;11.70;99.90;;;;;;5024626;28;20421;-74
2023/03/20 03:25:57;;;;;;;2.63;1.30;;;11.70;99.90;;;;;;5024046;28;20453;-72
2023/03/20 03:28:40;;;;;;;1.23;1.13;;;11.70;99.90;;;;;;5024502;28;20457;-72
2023/03/20 03:31:08;;;;;;;2.30;0.90;;;11.60;99.90;;;;;;5024621;28;20904;-74
2023/03/20 03:33:37;;;;;;;1.60;1.03;;;11.60;99.90;;;;;;5024340;28;20414;-72
2023/03/20 03:36:17;;;;;;;1.10;1.00;;;11.60;99.90;;;;;;5023970;28;20939;-73
2023/03/20 03:38:55;;;;;;;1.10;1.00;;;11.60;99.90;;;;;;5024336;28;20484;-73
2023/03/20 03:41:33;;;;;;;1.27;1.13;;;11.50;99.90;;;;;;5024279;28;20457;-73
2023/03/20 03:44:22;;;;;;;1.30;1.10;;;11.50;99.90;;;;;;5023902;28;20504;-71
2023/03/20 03:47:13;;;;;;;1.10;1.00;;;11.50;99.90;;;;;;5024077;28;20406;-73
2023/03/20 03:49:43;;;;;;;2.80;1.50;;;11.50;99.90;;;;;;5039275;28;20459;-72
2023/03/20 03:52:15;;;;;;;1.13;0.93;;;11.50;99.90;;;;;;5024408;28;20471;-74
2023/03/20 03:54:53;;;;;;;1.20;1.07;;;11.50;99.90;;;;;;5023720;28;20454;-73
2023/03/20 03:57:26;;;;;;;4.07;0.80;;;11.60;99.90;;;;;;5022796;28;20450;-72
2023/03/20 03:59:52;;;;;;;0.70;0.70;;;11.60;99.90;;;;;;5024480;28;20414;-74
2023/03/20 04:02:21;;;;;;;1.10;0.83;;;11.60;99.90;;;;;;5023887;28;20418;-73
2023/03/20 04:04:51;;;;;;;1.30;0.70;;;11.60;99.90;;;;;;5025850;28;20829;-73
2023/03/20 04:07:16;;;;;;;1.10;1.00;;;11.70;99.90;;;;;;5026196;28;20460;-72
2023/03/20 04:09:42;;;;;;;1.00;0.90;;;11.60;99.90;;;;;;5027748;28;20420;-73
2023/03/20 04:12:32;;;;;;;0.97;0.70;;;11.60;99.90;;;;;;5025735;28;20171;-73
2023/03/20 04:14:58;;;;;;;0.90;0.70;;;11.60;99.90;;;;;;5025292;28;20178;-72
2023/03/20 04:17:24;;;;;;;1.23;0.83;;;11.60;99.90;;;;;;5026987;28;20524;-71
2023/03/20 04:19:49;;;;;;;0.90;0.80;;;11.60;99.90;;;;;;5034684;22;20233;-70
2023/03/20 04:22:15;;;;;;;1.17;0.83;;;11.60;99.90;;;;;;5005072;28;20997;-70
2023/03/20 04:24:40;;;;;;;2.50;1.27;;;11.70;99.90;;;;;;5006543;28;20686;-70
2023/03/20 04:27:06;;;;;;;1.47;0.97;;;11.60;99.90;;;;;;5005613;28;20177;-70
2023/03/20 04:29:32;;;;;;;1.97;0.80;;;11.60;99.90;;;;;;5004977;28;20204;-73
2023/03/20 04:31:58;;;;;;;1.67;1.00;;;11.60;99.90;;;;;;5006315;28;20251;-70
2023/03/20 04:34:24;;;;;;;2.00;0.80;;;11.50;99.90;;;;;;5005850;28;20186;-71
2023/03/20 04:36:50;;;;;;;0.93;0.77;;;11.50;99.90;;;;;;5006623;28;20426;-72
2023/03/20 04:39:15;;;;;;;0.70;0.63;;;11.50;99.90;;;;;;5006156;28;20683;-70
2023/03/20 04:41:41;;;;;;;1.10;0.80;;;11.50;99.90;;;;;;5005929;28;20909;-71
2023/03/20 04:44:07;;;;;;;1.17;1.07;;;11.50;99.90;;;;;;5006119;28;20863;-69
2023/03/20 04:46:32;;;;;;;0.70;0.60;;;11.40;99.90;;;;;;5006125;28;20568;-70
2023/03/20 04:48:58;;;;;;;0.80;0.70;;;11.20;99.90;;;;;;5005479;28;20276;-70
2023/03/20 04:51:24;;;;;;;1.20;0.87;;;11.20;99.90;;;;;;5006104;28;20180;-70
2023/03/20 04:53:50;;;;;;;1.83;0.90;;;11.20;99.90;;;;;;5004460;28;20471;-70
2023/03/20 04:56:15;;;;;;;2.13;0.80;;;11.10;99.90;;;;;;5005978;28;20673;-71
2023/03/20 04:58:41;;;;;;;0.83;0.83;;;11.20;99.90;;;;;;5005368;28;20412;-69
2023/03/20 05:01:06;;;;;;;1.13;1.03;;;11.30;99.90;;;;;;5006033;28;20222;-69
2023/03/20 05:03:32;;;;;;;1.37;0.97;;;11.10;99.90;;;;;;5004513;28;20277;-70
2023/03/20 05:05:58;;;;;;;1.17;0.90;;;11.00;99.90;;;;;;5005429;28;20238;-71
2023/03/20 05:08:24;;;;;;;1.00;0.80;;;11.00;99.90;;;;;;5005712;28;20182;-74
2023/03/20 05:10:50;;;;;;;1.03;0.93;;;10.90;99.90;;;;;;5005698;28;20517;-69
2023/03/20 05:13:16;;;;;;;1.00;0.90;;;10.90;99.90;;;;;;5005422;28;20422;-70
2023/03/20 05:15:42;;;;;;;1.40;1.20;;;10.90;99.90;;;;;;5005480;28;20422;-69
2023/03/20 05:18:08;;;;;;;3.70;1.23;;;10.90;99.90;;;;;;5005827;28;20191;-71
2023/03/20 05:20:35;;;;;;;1.70;1.20;;;10.80;99.90;;;;;;5005690;28;20449;-71
2023/03/20 05:23:01;;;;;;;1.67;0.97;;;10.80;99.90;;;;;;5005593;28;20462;-71
2023/03/20 05:25:27;;;;;;;2.93;1.00;;;10.80;99.90;;;;;;5005761;28;21574;-71
2023/03/20 05:27:52;;;;;;;1.17;1.07;;;10.90;99.90;;;;;;5003711;28;20419;-69
2023/03/20 05:30:18;;;;;;;0.93;0.83;;;11.00;99.90;;;;;;5005708;28;20332;-69
2023/03/20 05:32:44;;;;;;;1.70;0.83;;;11.00;99.90;;;;;;5005429;28;20725;-69
2023/03/20 05:35:11;;;;;;;1.93;1.00;;;11.10;99.90;;;;;;5005277;28;20410;-72
2023/03/20 05:37:37;;;;;;;2.13;0.87;;;11.10;99.90;;;;;;5005273;28;20406;-71
2023/03/20 05:40:04;;;;;;;2.13;1.33;;;11.10;99.90;;;;;;5005156;28;20442;-69
2023/03/20 05:42:29;;;;;;;1.23;0.93;;;11.00;99.90;;;;;;5003734;28;20425;-69
2023/03/20 05:44:55;;;;;;;1.87;1.37;;;11.00;99.90;;;;;;5003481;28;20453;-70
2023/03/20 05:47:20;;;;;;;2.60;1.83;;;11.00;99.90;;;;;;5005066;28;20186;-69
2023/03/20 05:49:46;;;;;;;1.63;1.33;;;11.00;99.90;;;;;;5004390;28;20465;-68
2023/03/20 05:52:11;;;;;;;3.10;1.90;;;11.00;99.90;;;;;;5003599;28;20191;-70
2023/03/20 05:54:37;;;;;;;1.23;1.10;;;11.00;99.90;;;;;;5003490;28;20269;-68
2023/03/20 05:57:02;;;;;;;2.97;1.10;;;11.10;99.90;;;;;;5004503;28;20179;-71
2023/03/20 05:59:28;;;;;;;1.57;0.90;;;11.10;99.90;;;;;;5003211;28;20759;-69
2023/03/20 06:01:53;;;;;;;2.80;1.00;;;11.10;99.90;;;;;;5005000;28;20189;-72
2023/03/20 06:04:19;;;;;;;2.70;1.20;;;11.00;99.90;;;;;;5004234;28;20196;-73
2023/03/20 06:06:45;;;;;;;1.63;1.30;;;11.10;99.90;;;;;;5004839;28;20207;-71
2023/03/20 06:09:10;;;;;;;2.73;1.13;;;11.10;99.90;;;;;;5005249;28;20193;-71
2023/03/20 06:11:36;;;;;;;1.90;1.70;;;11.10;99.90;;;;;;5004859;28;20695;-71
2023/03/20 06:14:01;;;;;;;1.43;1.33;;;11.20;99.90;;;;;;5003773;28;20195;-70
2023/03/20 06:16:27;;;;;;;7.03;2.10;;;11.20;99.90;;;;;;5005514;28;20273;-69
2023/03/20 06:18:52;;;;;;;3.70;2.90;;;11.30;99.90;;;;;;5004390;28;20214;-71
2023/03/20 06:21:18;;;;;;;2.10;1.77;;;11.30;99.90;;;;;;5004268;28;20322;-72
2023/03/20 06:23:44;;;;;;;3.37;1.87;;;11.30;99.90;;;;;;5004649;28;20196;-71
2023/03/20 06:26:10;;;;;;;1.10;1.00;;;11.40;99.90;;;;;;5003985;28;20360;-69
2023/03/20 06:28:36;;;;;;;1.60;1.17;;;11.30;99.90;;;;;;5004206;28;20171;-69
2023/03/20 06:31:02;;;;;;;1.67;1.40;;;11.40;99.90;;;;;;5003853;28;20429;-69
2023/03/20 06:33:27;;;;;;;1.30;1.20;;;11.60;99.90;;;;;;5002871;28;20185;-70
2023/03/20 06:35:53;;;;;;;1.90;1.30;;;11.70;99.90;;;;;;5004067;28;20598;-72
2023/03/20 06:38:19;;;;;;;2.17;1.50;;;11.70;99.90;;;;;;5004264;28;20270;-72
2023/03/20 06:40:44;;;;;;;1.20;1.10;;;11.70;99.90;;;;;;5002578;28;20230;-68
2023/03/20 06:43:11;;;;;;;3.07;1.60;;;11.70;99.90;;;;;;5002872;28;21625;-70
2023/03/20 06:45:37;;;;;;;1.07;1.00;;;11.70;99.90;;;;;;5003979;28;20245;-71
2023/03/20 06:48:06;;;;;;;1.30;1.20;;;11.80;99.90;;;;;;5004074;28;20470;-74
2023/03/20 06:50:32;;;;;;;1.57;1.13;;;12.00;99.90;;;;;;5003918;28;20493;-69
2023/03/20 06:52:57;;;;;;;1.60;1.10;;;12.10;99.90;;;;;;5004394;28;20414;-71
2023/03/20 06:55:23;;;;;;;2.03;1.60;;;12.30;99.90;;;;;;5002570;28;20191;-68
2023/03/20 06:57:48;;;;;;;4.23;2.07;;;12.40;99.90;;;;;;5004034;28;20256;-70
2023/03/20 07:00:14;;;;;;;2.20;1.60;;;12.40;99.90;;;;;;5002495;28;20673;-72
2023/03/20 07:02:40;;;;;;;3.07;1.40;;;12.40;99.90;;;;;;5004013;28;20189;-70
2023/03/20 07:05:06;;;;;;;1.93;1.27;;;12.60;99.90;;;;;;5003420;28;20499;-69
2023/03/20 07:07:33;;;;;;;1.20;0.93;;;12.70;99.90;;;;;;5003811;28;20775;-71
2023/03/20 07:09:58;;;;;;;2.20;1.50;;;12.80;99.90;;;;;;5003937;28;20468;-72
2023/03/20 07:12:27;;;;;;;2.10;1.17;;;12.90;99.90;;;;;;5003443;28;20423;-72
2023/03/20 07:14:53;;;;;;;3.33;1.27;;;12.90;99.90;;;;;;5003883;28;20185;-70
2023/03/20 07:17:18;;;;;;;2.80;1.43;;;12.90;99.90;;;;;;5002144;28;20423;-70
2023/03/20 07:19:44;;;;;;;2.20;1.13;;;13.00;99.90;;;;;;5003467;28;20678;-71
2023/03/20 07:22:20;;;;;;;1.30;1.20;;;13.10;99.90;;;;;;5003928;28;20190;-71
2023/03/20 07:24:46;;;;;;;2.20;1.40;;;13.30;99.90;;;;;;5003543;28;20543;-70
2023/03/20 07:27:11;;;;;;;1.73;1.10;;;13.30;99.90;;;;;;5003405;28;20430;-69
2023/03/20 07:29:37;;;;;;;1.60;1.50;;;13.20;99.90;;;;;;5003146;28;20205;-71
2023/03/20 07:32:02;;;;;;;1.50;1.40;;;13.00;99.90;;;;;;5003784;28;20184;-71
2023/03/20 07:34:28;;;;;;;1.67;1.23;;;12.70;99.90;;;;;;5002723;28;20413;-70
2023/03/20 07:36:54;;;;;;;2.00;1.30;;;12.60;99.90;;;;;;5004214;28;20646;-71
2023/03/20 07:39:20;;;;;;;2.20;1.60;;;12.70;99.90;;;;;;5004637;28;20774;-72
2023/03/20 07:41:46;;;;;;;2.07;1.40;;;12.80;99.90;;;;;;5006913;28;20933;-75
2023/03/20 07:44:13;;;;;;;1.77;1.40;;;12.80;99.90;;;;;;5008238;28;20424;-72
2023/03/20 07:46:39;;;;;;;2.30;1.47;;;12.90;99.90;;;;;;5007639;28;20864;-71
2023/03/20 07:49:05;;;;;;;1.50;1.20;;;13.00;99.90;;;;;;5007288;28;20445;-72
2023/03/20 07:51:31;;;;;;;3.43;1.80;;;13.10;99.90;;;;;;5006940;28;20420;-70
2023/03/20 07:53:56;;;;;;;2.33;1.30;;;13.20;99.90;;;;;;5007124;28;20234;-74
2023/03/20 07:56:22;;;;;;;2.17;1.50;;;13.30;99.90;;;;;;5005900;28;20233;-73
2023/03/20 07:58:47;;;;;;;1.73;1.60;;;13.40;99.90;;;;;;5007499;28;20671;-72
2023/03/20 08:01:13;;;;;;;1.67;1.57;;;13.50;99.90;;;;;;5007135;28;20655;-73
2023/03/20 08:03:39;;;;;;;1.60;1.50;;;13.60;99.90;;;;;;5007310;28;20242;-72
2023/03/20 08:06:06;;;;;;;2.23;1.40;;;13.70;99.90;;;;;;5007068;28;20869;-72
2023/03/20 08:08:32;;;;;;;2.37;1.60;;;14.00;99.90;;;;;;5006634;28;20194;-69
2023/03/20 08:10:57;;;;;;;4.87;1.60;;;14.10;99.90;;;;;;5007259;28;20424;-71
2023/03/20 08:13:23;;;;;;;1.40;1.30;;;13.90;99.90;;;;;;5003505;28;20183;-71
2023/03/20 08:15:49;;;;;;;1.63;1.53;;;14.10;99.90;;;;;;5002529;28;20189;-70
2023/03/20 08:18:14;;;;;;;4.20;1.73;;;14.20;99.90;;;;;;5006680;28;20280;-70
2023/03/20 08:20:40;;;;;;;2.67;1.40;;;14.20;99.90;;;;;;5006517;28;20916;-71
2023/03/20 08:23:06;;;;;;;1.87;1.70;;;14.20;99.90;;;;;;5006596;28;20205;-72
2023/03/20 08:25:33;;;;;;;3.00;1.50;;;14.30;99.90;;;;;;5006868;28;20214;-72
2023/03/20 08:28:01;;;;;;;1.93;1.77;;;14.20;99.90;;;;;;5006461;28;20792;-71
2023/03/20 08:30:27;;;;;;;2.63;1.80;;;13.90;99.90;;;;;;5004431;28;20478;-72
2023/03/20 08:32:52;;;;;;;1.40;1.30;;;14.00;99.90;;;;;;5006003;28;20890;-71
2023/03/20 08:35:18;;;;;;;1.83;1.50;;;14.10;99.90;;;;;;5004965;28;20420;-72
2023/03/20 08:37:43;;;;;;;1.40;1.30;;;14.30;99.90;;;;;;5005453;28;20186;-73
2023/03/20 08:40:10;;;;;;;2.33;1.43;;;14.40;99.90;;;;;;5007056;28;20226;-71
2023/03/20 08:42:36;;;;;;;2.37;1.60;;;14.60;99.90;;;;;;5008105;28;20216;-69
2023/03/20 08:45:01;;;;;;;2.47;1.83;;;14.70;99.90;;;;;;5005997;28;20462;-70
2023/03/20 08:47:27;;;;;;;3.93;1.93;;;14.70;99.90;;;;;;5005961;28;20181;-70
2023/03/20 08:49:52;;;;;;;2.10;1.90;;;14.40;99.90;;;;;;5005727;28;20741;-72
2023/03/20 08:52:18;;;;;;;1.60;1.50;;;14.30;99.90;;;;;;5005872;28;20590;-69
2023/03/20 08:54:44;;;;;;;2.43;1.70;;;14.30;99.90;;;;;;5006041;28;20567;-71
2023/03/20 08:57:09;;;;;;;2.40;1.57;;;14.10;99.90;;;;;;5005350;28;20759;-72
2023/03/20 08:59:35;;;;;;;1.57;1.03;;;14.20;99.90;;;;;;5005788;28;20211;-71
2023/03/20 09:02:01;;;;;;;1.60;1.50;;;13.80;99.90;;;;;;5005798;28;20204;-73
2023/03/20 09:04:26;;;;;;;1.63;1.53;;;13.70;99.90;;;;;;5005631;28;20207;-69
2023/03/20 09:06:52;;;;;;;2.30;2.10;;;13.90;99.90;;;;;;5005781;28;20202;-72
2023/03/20 09:09:20;;;;;;;2.83;1.40;;;13.60;99.90;;;;;;5005748;28;20359;-70
2023/03/20 09:11:46;;;;;;;1.40;1.17;;;13.90;99.90;;;;;;5003839;28;20190;-72
2023/03/20 09:14:11;;;;;;;1.80;1.57;;;13.70;99.90;;;;;;5005692;28;20877;-70
2023/03/20 09:16:37;;;;;;;1.57;1.37;;;13.90;99.90;;;;;;5005585;28;20190;-73
2023/03/20 09:19:03;;;;;;;1.77;1.47;;;14.00;99.90;;;;;;5005225;28;20224;-73
2023/03/20 09:21:28;;;;;;;1.70;1.40;;;14.30;99.90;;;;;;5005619;28;20630;-70
2023/03/20 09:23:54;;;;;;;1.30;1.10;;;14.60;99.90;;;;;;5005246;28;20422;-70
2023/03/20 09:26:19;;;;;;;3.90;1.40;;;14.80;99.90;;;;;;5004738;28;20207;-73
2023/03/20 09:28:45;;;;;;;1.57;1.40;;;14.80;99.90;;;;;;5004666;28;20180;-71
2023/03/20 09:31:10;;;;;;;2.67;1.70;;;15.20;99.90;;;;;;5004991;28;21003;-69
2023/03/20 09:33:36;;;;;;;2.10;1.27;;;15.30;99.90;;;;;;5005423;28;20538;-69
2023/03/20 09:36:02;;;;;;;1.90;1.70;;;15.30;99.90;;;;;;5004784;28;20180;-71
2023/03/20 09:38:28;;;;;;;1.63;1.53;;;15.50;99.90;;;;;;5005365;28;20188;-71
2023/03/20 09:40:59;;;;;;;1.60;1.47;;;15.60;99.90;;;;;;5005157;28;20592;-68
2023/03/20 09:43:43;;;;;;;2.10;1.73;;;15.50;99.90;;;;;;5003008;28;20209;-67
2023/03/20 09:46:17;;;;;;;2.23;1.77;;;15.50;99.90;;;;;;5005113;28;20443;-71
2023/03/20 09:48:56;;;;;;;3.20;1.60;;;15.10;99.90;;;;;;5004847;28;20415;-70
2023/03/20 09:51:33;;;;;;;1.77;1.67;;;15.50;99.90;;;;;;5004926;28;20433;-70
2023/03/20 09:54:05;;;;;;;2.87;1.73;;;15.60;99.90;;;;;;5004910;28;20414;-69
2023/03/20 09:56:31;;;;;;;2.63;2.10;;;15.80;99.90;;;;;;5003889;28;20828;-69
2023/03/20 09:59:04;;;;;;;3.07;2.33;;;15.60;99.90;;;;;;5004226;28;20641;-72
2023/03/20 10:01:34;;;;;;;2.00;1.80;;;15.70;99.90;;;;;;5003633;28;20480;-71
2023/03/20 10:04:06;;;;;;;1.70;1.60;;;15.70;99.90;;;;;;5004411;28;20619;-71
2023/03/20 10:06:32;;;;;;;1.60;1.50;;;15.70;99.90;;;;;;5003728;28;20446;-73
2023/03/20 10:08:58;;;;;;;3.10;2.13;;;16.00;99.90;;;;;;5004164;28;20893;-73
2023/03/20 10:11:32;;;;;;;3.00;2.37;;;16.20;99.90;;;;;;5004258;28;20172;-71
2023/03/20 10:14:21;;;;;;;3.60;1.70;;;15.70;99.90;;;;;;5004371;28;20631;-72
2023/03/20 10:17:16;;;;;;;2.50;2.17;;;15.90;99.90;;;;;;5004531;28;20472;-72
2023/03/20 10:19:52;;;;;;;2.33;2.13;;;16.30;99.90;;;;;;5004502;28;20462;-73
2023/03/20 10:22:47;;;;;;;1.87;1.67;;;16.20;99.90;;;;;;5003000;28;20433;-72
2023/03/20 10:25:30;;;;;;;2.70;2.10;;;15.90;99.90;;;;;;5004411;28;20460;-73
2023/03/20 10:28:12;;;;;;;2.00;1.83;;;15.70;99.90;;;;;;5002548;28;20585;-70
2023/03/20 10:31:11;;;;;;;2.40;1.63;;;15.80;99.90;;;;;;5003814;28;20438;-69
2023/03/20 10:34:01;;;;;;;2.03;1.70;;;15.70;99.90;;;;;;5003595;28;20422;-72
2023/03/20 10:37:04;;;;;;;3.27;2.40;;;15.60;99.90;;;;;;5002542;28;20436;-69
2023/03/20 10:40:14;;;;;;;2.17;1.97;;;15.60;99.90;;;;;;5004077;28;20993;-69
2023/03/20 10:42:43;;;;;;;3.07;2.10;;;15.30;99.90;;;;;;4989037;28;20428;-69
2023/03/20 10:45:32;;;;;;;1.73;1.60;;;15.30;99.90;;;;;;5003851;28;21264;-72
2023/03/20 10:48:01;;;;;;;2.97;2.20;;;15.30;99.90;;;;;;5002833;28;20423;-70
2023/03/20 10:50:40;;;;;;;2.30;2.00;;;15.10;99.90;;;;;;5028876;22;20497;-70
2023/03/20 10:53:06;;;;;;;4.00;2.80;;;15.10;99.90;;;;;;5004010;28;20872;-71
2023/03/20 10:55:41;;;;;;;4.20;3.23;;;14.80;99.90;;;;;;5004028;28;20785;-70
2023/03/20 10:58:21;;;;;;;5.03;2.87;;;14.40;99.90;;;;;;5002188;28;20415;-71
2023/03/20 11:00:46;;;;;;;3.43;2.00;;;14.20;99.90;;;;;;5002422;28;20434;-72
2023/03/20 11:03:22;;;;;;;2.77;2.53;;;13.80;99.90;;;;;;5003895;28;20944;-72
2023/03/20 11:05:55;;;;;;;3.30;2.60;;;13.80;99.90;;;;;;5003785;28;20207;-72
2023/03/20 11:08:24;;;;;;;4.10;3.70;;;13.90;99.90;;;;;;5003472;28;20416;-72
2023/03/20 11:10:58;;;;;;;4.40;4.00;;;13.80;99.90;;;;;;5003718;28;20429;-75
2023/03/20 11:13:35;;;;;;;2.90;2.00;;;13.90;99.90;;;;;;5004600;28;21201;-73
2023/03/20 11:16:22;;;;;;;3.10;2.63;;;14.10;99.90;;;;;;5007863;28;20482;-73
2023/03/20 11:18:49;;;;;;;2.40;2.17;;;13.90;99.90;;;;;;5008089;28;20398;-73
2023/03/20 11:21:20;;;;;;;3.30;3.00;;;13.80;99.90;;;;;;5007870;28;20441;-74
2023/03/20 11:23:46;;;;;;;3.73;3.40;;;14.00;99.90;;;;;;5007101;28;20964;-73
2023/03/20 11:26:17;;;;;;;4.37;3.50;;;14.10;99.90;;;;;;5006535;28;20460;-72
2023/03/20 11:28:52;;;;;;;5.23;3.97;;;14.20;99.90;;;;;;5006378;28;21125;-72
2023/03/20 11:31:24;;;;;;;4.50;4.10;;;14.10;99.90;;;;;;5007415;28;20453;-72
2023/03/20 11:34:00;;;;;;;5.17;4.40;;;14.00;99.90;;;;;;5007453;28;20416;-76
2023/03/20 11:36:32;;;;;;;6.27;5.63;;;14.00;99.90;;;;;;5006690;28;20452;-71
2023/03/20 11:39:11;;;;;;;5.83;5.23;;;14.10;99.90;;;;;;5007622;28;20425;-74
2023/03/20 11:41:46;;;;;;;7.67;5.00;;;13.90;99.90;;;;;;5007544;28;20478;-75
2023/03/20 11:44:27;;;;;;;4.33;3.93;;;13.70;99.90;;;;;;5006255;28;20465;-73
2023/03/20 11:46:58;;;;;;;5.13;4.57;;;13.70;99.90;;;;;;5005662;28;20437;-72
2023/03/20 11:49:26;;;;;;;6.00;5.40;;;13.60;99.90;;;;;;5007585;28;20873;-72
2023/03/20 11:51:52;;;;;;;5.03;4.53;;;13.80;99.90;;;;;;5007411;28;20456;-73
2023/03/20 11:54:21;;;;;;;5.13;4.63;;;13.90;99.90;;;;;;5007245;28;20429;-73
2023/03/20 11:56:55;;;;;;;6.67;5.27;;;13.60;99.90;;;;;;5006520;28;20432;-72
2023/03/20 11:59:24;;;;;;;5.40;4.40;;;13.80;99.90;;;;;;5006295;28;20478;-73
2023/03/20 12:01:52;;;;;;;5.37;4.83;;;14.00;99.90;;;;;;5005180;28;20452;-73
2023/03/20 12:04:26;;;;;;;4.83;4.33;;;14.10;99.90;;;;;;5006106;28;20426;-72
2023/03/20 12:07:11;;;;;;;6.90;4.07;;;14.90;99.90;;;;;;5006378;28;20418;-72
2023/03/20 12:10:05;;;;;;;5.10;4.60;;;15.10;99.90;;;;;;5005451;28;20968;-73
2023/03/20 12:12:41;;;;;;;7.27;5.10;;;15.10;99.90;;;;;;5006689;28;20413;-72
2023/03/20 12:15:29;;;;;;;8.20;5.07;;;15.10;99.90;;;;;;5006631;28;20711;-76
2023/03/20 12:18:05;;;;;;;4.87;4.37;;;15.70;99.90;;;;;;5005870;28;20474;-73
2023/03/20 12:20:35;;;;;;;5.80;4.47;;;15.80;99.90;;;;;;5006937;28;20472;-73
2023/03/20 12:23:09;;;;;;;7.43;6.43;;;15.70;99.90;;;;;;5006419;28;20436;-73
2023/03/20 12:25:52;;;;;;;4.60;4.20;;;15.70;99.90;;;;;;5005474;28;20454;-73
2023/03/20 12:28:50;;;;;;;7.30;5.23;;;16.60;99.90;;;;;;5004883;28;20407;-73
2023/03/20 12:31:32;;;;;;;4.80;4.30;;;16.10;99.90;;;;;;5006125;28;20959;-72
2023/03/20 12:34:10;;;;;;;5.90;4.87;;;16.20;99.90;;;;;;5005975;28;20434;-75
2023/03/20 12:36:44;;;;;;;6.57;4.63;;;16.50;99.90;;;;;;5005070;28;20438;-72
2023/03/20 12:39:16;;;;;;;4.80;4.07;;;16.80;99.90;;;;;;5004369;28;20768;-75
2023/03/20 12:41:59;;;;;;;6.03;4.60;;;16.80;99.90;;;;;;5005907;28;20988;-72
2023/03/20 12:44:31;;;;;;;5.33;4.47;;;16.40;99.90;;;;;;5005856;28;20772;-72
2023/03/20 12:47:15;;;;;;;6.57;5.10;;;15.80;99.90;;;;;;5006032;28;20536;-73
2023/03/20 12:50:22;;;;;;;6.30;4.10;;;15.60;99.90;;;;;;5005660;28;20406;-73
2023/03/20 12:52:53;;;;;;;4.37;3.97;;;16.10;99.90;;;;;;5004860;28;20437;-70
2023/03/20 12:56:00;;;;;;;5.33;4.03;;;16.20;99.90;;;;;;5005296;28;20505;-70
2023/03/20 12:58:31;;;;;;;4.70;4.00;;;15.90;99.90;;;;;;5004321;28;20788;-70
2023/03/20 13:01:14;;;;;;;6.97;4.20;;;15.40;99.90;;;;;;5004715;28;20718;-73
2023/03/20 13:03:55;;;;;;;6.10;4.47;;;15.40;99.90;;;;;;5006046;28;20414;-72
2023/03/20 13:06:38;;;;;;;6.50;4.23;;;15.60;99.90;;;;;;5005814;28;20520;-72